Time;durP1;ratioP1;P1;durP2;ratioP2;P2;SDS_P1;SDS_P2;PMS_P1;PMS_P2;Temp;Humidity;BMP_temperature;BMP_pressure;BME280_temperature;BME280_humidity;BME280_pressure;Samples;Min_cycle;Max_cycle;Signal;HPM_P1;HPM_P2
2022/01/28 00:04:51;;;;;;;1.95;0.80;;;7.70;94.90;;;;;;4995059;28;20057;-88
2022/01/28 00:07:17;;;;;;;3.15;1.15;;;7.70;94.80;;;;;;4947757;28;20039;-89
2022/01/28 00:09:43;;;;;;;4.40;1.10;;;7.70;94.70;;;;;;4975790;28;20048;-88
2022/01/28 00:12:10;;;;;;;3.25;0.80;;;7.70;94.70;;;;;;4948908;28;20086;-88
2022/01/28 00:38:47;;;;;;;1.45;0.90;;;7.50;94.60;;;;;;4989754;28;20042;-88
2022/01/28 00:41:14;;;;;;;1.77;0.90;;;7.50;94.60;;;;;;4980349;28;20046;-88
2022/01/28 00:43:40;;;;;;;2.25;0.90;;;7.50;94.60;;;;;;4975011;28;20050;-88
2022/01/28 00:46:06;;;;;;;4.93;1.52;;;7.50;94.60;;;;;;4931922;28;20392;-88
2022/01/28 00:48:32;;;;;;;2.17;0.90;;;7.50;94.60;;;;;;4969079;28;20035;-88
2022/01/28 00:50:58;;;;;;;2.83;1.00;;;7.40;94.60;;;;;;4962946;28;20034;-88
2022/01/28 00:53:23;;;;;;;3.60;1.10;;;7.40;94.60;;;;;;4957887;28;20149;-88
2022/01/28 00:55:49;;;;;;;2.92;0.80;;;7.40;94.60;;;;;;4947705;28;20034;-88
2022/01/28 00:58:15;;;;;;;2.97;0.90;;;7.40;94.50;;;;;;4960888;28;20031;-88
2022/01/28 01:00:41;;;;;;;2.03;1.00;;;7.40;94.40;;;;;;4936899;28;20034;-88
2022/01/28 01:03:07;;;;;;;3.23;0.87;;;7.40;94.40;;;;;;4947779;28;20551;-88
2022/01/28 01:05:34;;;;;;;1.73;0.75;;;7.30;94.30;;;;;;4964949;28;20525;-88
2022/01/28 01:08:04;;;;;;;4.55;1.15;;;7.30;94.30;;;;;;4996376;28;20037;-88
2022/01/28 01:10:31;;;;;;;2.35;1.00;;;7.30;94.30;;;;;;4987130;28;20271;-88
2022/01/28 01:12:57;;;;;;;5.45;1.20;;;7.20;94.30;;;;;;4966319;28;20034;-88
2022/01/28 01:15:27;;;;;;;3.07;1.00;;;7.20;94.30;;;;;;4939162;28;20678;-88
2022/01/28 01:18:14;;;;;;;3.10;0.90;;;7.20;94.30;;;;;;4977132;28;20051;-88
2022/01/28 01:23:31;;;;;;;1.38;0.88;;;7.10;94.10;;;;;;4991262;28;20035;-89
2022/01/28 01:28:36;;;;;;;3.37;1.00;;;7.00;94.20;;;;;;4962452;28;20030;-89
2022/01/28 01:31:04;;;;;;;2.42;0.90;;;7.00;94.20;;;;;;4948606;28;20492;-88
2022/01/28 01:33:48;;;;;;;3.70;0.90;;;7.00;94.20;;;;;;4984716;28;20419;-88
2022/01/28 01:36:14;;;;;;;2.10;1.00;;;7.00;94.20;;;;;;4960995;28;20034;-89
2022/01/28 01:38:41;;;;;;;2.50;1.17;;;7.00;94.20;;;;;;4977710;28;20038;-88
2022/01/28 01:41:20;;;;;;;2.83;1.00;;;6.90;94.50;;;;;;4957383;28;20057;-88
2022/01/28 01:46:36;;;;;;;4.38;1.38;;;6.80;94.10;;;;;;4981549;28;20373;-88
2022/01/28 01:52:06;;;;;;;2.17;1.50;;;6.80;93.90;;;;;;4996536;28;20126;-88
2022/01/28 01:54:41;;;;;;;2.28;1.15;;;6.70;93.80;;;;;;4960984;28;20282;-88
2022/01/28 01:57:11;;;;;;;3.47;1.75;;;6.70;93.70;;;;;;4961190;28;20046;-88
2022/01/28 01:59:39;;;;;;;1.77;1.27;;;6.60;93.70;;;;;;4965293;28;20062;-88
2022/01/28 02:02:06;;;;;;;2.67;1.27;;;6.60;93.70;;;;;;4947953;28;20034;-88
2022/01/28 02:04:32;;;;;;;1.83;1.33;;;6.50;93.70;;;;;;4941856;28;20225;-88
2022/01/28 02:06:59;;;;;;;2.55;1.30;;;6.50;93.70;;;;;;4959654;28;20433;-88
2022/01/28 02:09:25;;;;;;;4.50;1.90;;;6.50;93.70;;;;;;4960372;28;20037;-88
2022/01/28 02:11:51;;;;;;;3.28;1.60;;;6.40;93.60;;;;;;4962366;28;20022;-88
2022/01/28 02:14:17;;;;;;;3.17;1.63;;;6.40;93.60;;;;;;4949125;28;20078;-88
2022/01/28 02:16:42;;;;;;;4.70;1.80;;;6.40;93.60;;;;;;4986923;28;20030;-88
2022/01/28 02:19:08;;;;;;;5.63;1.83;;;6.40;93.60;;;;;;4984479;28;20134;-88
2022/01/28 02:21:40;;;;;;;5.13;2.03;;;6.30;93.60;;;;;;4945163;28;20126;-88
2022/01/28 02:24:07;;;;;;;4.68;1.77;;;6.20;93.70;;;;;;4962924;28;20066;-88
2022/01/28 02:26:35;;;;;;;3.20;1.73;;;6.20;93.80;;;;;;4946153;28;20113;-88
2022/01/28 02:29:07;;;;;;;5.22;2.20;;;6.20;93.80;;;;;;4958386;28;20063;-88
2022/01/28 02:31:33;;;;;;;4.20;2.00;;;6.20;93.80;;;;;;4976316;28;20254;-88
2022/01/28 02:34:00;;;;;;;5.50;2.10;;;6.10;93.80;;;;;;4957389;28;20023;-88
2022/01/28 02:36:26;;;;;;;4.38;1.90;;;6.10;93.80;;;;;;4957839;28;20023;-88
2022/01/28 02:38:53;;;;;;;4.03;2.03;;;6.10;93.70;;;;;;4974101;28;20027;-88
2022/01/28 02:41:19;;;;;;;5.60;2.20;;;6.10;93.70;;;;;;4997215;28;20018;-88
2022/01/28 02:46:16;;;;;;;5.23;2.10;;;6.00;93.60;;;;;;4966404;28;20034;-88
2022/01/28 02:48:53;;;;;;;4.03;2.08;;;6.00;93.70;;;;;;4949094;28;20054;-88
2022/01/28 02:51:21;;;;;;;5.95;2.30;;;6.00;93.80;;;;;;4956704;28;20037;-88
2022/01/28 02:53:56;;;;;;;5.05;2.38;;;5.90;93.80;;;;;;4993711;28;20030;-88
2022/01/28 02:56:34;;;;;;;4.47;2.25;;;5.90;93.90;;;;;;4971571;28;20152;-88
2022/01/28 02:59:00;;;;;;;3.97;2.40;;;5.90;93.90;;;;;;4941757;28;20117;-88
2022/01/28 03:01:26;;;;;;;4.50;2.22;;;5.90;94.00;;;;;;4968782;28;20030;-88
2022/01/28 03:03:55;;;;;;;3.40;2.10;;;5.90;94.00;;;;;;4931319;28;20432;-88
2022/01/28 03:06:21;;;;;;;6.35;2.10;;;5.90;94.10;;;;;;4947911;28;20519;-88
2022/01/28 03:08:57;;;;;;;3.75;2.10;;;5.80;94.10;;;;;;4968052;28;20027;-88
2022/01/28 03:16:22;;;;;;;4.72;2.13;;;5.80;94.10;;;;;;4981892;28;20324;-88
2022/01/28 03:23:58;;;;;;;4.32;2.15;;;5.80;94.00;;;;;;4983915;28;20139;-88
2022/01/28 03:26:26;;;;;;;6.22;2.20;;;5.80;93.90;;;;;;4963227;28;20501;-88
2022/01/28 03:28:52;;;;;;;3.90;2.30;;;5.70;93.80;;;;;;4993444;28;20015;-88
2022/01/28 03:31:18;;;;;;;4.53;2.53;;;5.70;93.90;;;;;;4951624;28;20049;-88
2022/01/28 03:33:44;;;;;;;4.78;2.50;;;5.70;93.90;;;;;;4963511;28;20023;-88
2022/01/28 03:36:12;;;;;;;5.70;2.60;;;5.70;93.80;;;;;;4932533;28;20143;-88
2022/01/28 03:38:39;;;;;;;4.47;2.17;;;5.60;93.80;;;;;;4975377;28;20031;-88
2022/01/28 03:41:12;;;;;;;4.68;2.78;;;5.60;93.80;;;;;;4960772;28;20525;-88
2022/01/28 03:43:38;;;;;;;5.53;2.60;;;5.60;93.70;;;;;;4993507;28;20039;-88
2022/01/28 03:46:04;;;;;;;5.38;2.70;;;5.50;93.70;;;;;;4973984;28;20077;-88
2022/01/28 03:48:30;;;;;;;4.93;2.40;;;5.50;93.70;;;;;;4955731;28;20617;-88
2022/01/28 03:50:55;;;;;;;5.47;2.50;;;5.50;93.80;;;;;;4980553;28;20436;-88
2022/01/28 03:53:21;;;;;;;4.30;2.47;;;5.50;93.80;;;;;;4987156;28;20213;-88
2022/01/28 03:55:47;;;;;;;5.55;2.67;;;5.50;93.80;;;;;;4966978;28;20038;-88
2022/01/28 03:58:14;;;;;;;4.90;2.50;;;5.40;93.70;;;;;;4951953;28;20115;-88
2022/01/28 04:00:40;;;;;;;4.65;2.65;;;5.40;93.70;;;;;;4995339;28;20477;-88
2022/01/28 04:03:10;;;;;;;6.85;2.28;;;5.40;93.50;;;;;;4951134;28;20096;-88
2022/01/28 04:13:32;;;;;;;4.93;2.20;;;5.20;93.40;;;;;;4990551;28;20298;-88
2022/01/28 04:18:41;;;;;;;3.30;2.40;;;5.10;93.30;;;;;;4982913;28;20102;-88
2022/01/28 04:21:07;;;;;;;3.87;2.30;;;5.10;93.40;;;;;;4952717;28;20035;-88
2022/01/28 04:23:33;;;;;;;5.43;2.58;;;5.00;93.40;;;;;;4980274;28;20053;-88
2022/01/28 04:25:58;;;;;;;4.80;2.70;;;5.00;93.50;;;;;;4959819;28;20462;-88
2022/01/28 04:28:24;;;;;;;4.55;2.42;;;5.00;93.50;;;;;;4944886;28;20512;-88
2022/01/28 04:30:50;;;;;;;4.93;2.90;;;5.00;93.60;;;;;;4976191;28;20018;-88
2022/01/28 04:33:15;;;;;;;5.18;2.55;;;4.90;93.60;;;;;;4949545;28;20087;-88
2022/01/28 04:35:41;;;;;;;4.57;2.40;;;4.90;93.70;;;;;;4963263;28;20018;-88
2022/01/28 04:41:12;;;;;;;6.13;2.60;;;4.90;93.90;;;;;;4991211;28;20034;-88
2022/01/28 04:43:40;;;;;;;5.53;2.50;;;4.90;94.00;;;;;;4950298;28;20232;-88
2022/01/28 05:03:44;;;;;;;4.07;2.60;;;4.80;94.00;;;;;;4985575;28;20144;-88
2022/01/28 05:23:22;;;;;;;4.82;3.10;;;4.70;94.30;;;;;;4968738;28;20034;-88
2022/01/28 05:27:41;;;;;;;5.00;2.85;;;4.80;94.50;;;;;;4970760;28;20035;-88
2022/01/28 05:30:08;;;;;;;4.82;2.92;;;4.80;94.50;;;;;;4963356;28;20027;-88
2022/01/28 05:32:33;;;;;;;6.20;3.40;;;4.80;94.60;;;;;;4953911;28;20328;-88
2022/01/28 05:34:59;;;;;;;6.00;3.40;;;4.80;94.60;;;;;;4991951;28;20482;-87
2022/01/28 05:37:25;;;;;;;5.95;3.20;;;4.80;94.70;;;;;;4959444;28;20784;-88
2022/01/28 05:39:50;;;;;;;6.10;3.00;;;4.90;94.70;;;;;;4947830;28;20030;-87
2022/01/28 05:42:16;;;;;;;5.65;3.33;;;4.80;94.70;;;;;;4948421;28;20039;-87
2022/01/28 05:44:41;;;;;;;4.50;2.80;;;4.80;94.80;;;;;;4961697;28;20046;-87
2022/01/28 05:47:13;;;;;;;5.30;2.97;;;4.90;94.90;;;;;;4971611;28;20132;-87
2022/01/28 05:49:39;;;;;;;7.83;2.73;;;4.90;94.80;;;;;;4940717;28;20348;-88
2022/01/28 05:52:04;;;;;;;5.05;2.75;;;4.90;94.60;;;;;;4942546;28;20384;-88
2022/01/28 05:54:30;;;;;;;8.00;3.20;;;4.90;94.60;;;;;;4961215;28;20035;-88
2022/01/28 05:56:56;;;;;;;6.37;2.90;;;4.90;94.60;;;;;;4965453;28;20297;-88
2022/01/28 05:59:21;;;;;;;4.57;2.40;;;4.90;94.70;;;;;;4963153;28;20030;-88
2022/01/28 06:01:47;;;;;;;5.03;2.92;;;4.90;94.70;;;;;;4964952;28;20030;-88
2022/01/28 06:04:15;;;;;;;5.07;3.23;;;4.90;94.60;;;;;;4962006;28;20018;-88
2022/01/28 06:06:41;;;;;;;4.28;2.80;;;4.90;94.60;;;;;;4957283;28;20046;-88
2022/01/28 06:09:07;;;;;;;4.70;2.75;;;4.80;94.40;;;;;;4964301;28;20031;-88
2022/01/28 06:11:32;;;;;;;5.13;3.03;;;4.80;94.30;;;;;;4958393;28;20096;-88
2022/01/28 06:13:58;;;;;;;6.40;2.90;;;4.80;94.20;;;;;;4961255;28;20117;-88
2022/01/28 06:16:24;;;;;;;4.77;2.80;;;4.80;94.10;;;;;;4964903;28;20027;-88
2022/01/28 06:18:49;;;;;;;4.53;2.97;;;4.80;94.00;;;;;;4976698;28;20122;-88
2022/01/28 06:21:16;;;;;;;4.80;2.80;;;4.70;94.00;;;;;;4952937;28;20126;-88
2022/01/28 06:23:42;;;;;;;5.53;2.90;;;4.70;94.30;;;;;;4932023;28;20094;-88
2022/01/28 06:26:08;;;;;;;4.97;2.58;;;4.60;93.90;;;;;;4978989;28;20549;-88
2022/01/28 06:28:33;;;;;;;5.23;2.80;;;4.60;93.90;;;;;;4962947;28;20511;-88
2022/01/28 06:30:59;;;;;;;6.13;2.90;;;4.60;93.90;;;;;;4988032;28;20048;-88
2022/01/28 06:33:25;;;;;;;5.47;2.92;;;4.60;94.00;;;;;;4957838;28;20049;-88
2022/01/28 06:35:51;;;;;;;6.13;2.70;;;4.50;93.90;;;;;;4950046;28;20023;-88
2022/01/28 06:38:17;;;;;;;5.45;2.72;;;4.50;93.90;;;;;;4980278;28;20505;-87
2022/01/28 06:40:43;;;;;;;4.43;2.80;;;4.50;93.90;;;;;;4975916;28;20122;-88
2022/01/28 06:43:13;;;;;;;3.70;2.50;;;4.50;93.90;;;;;;4933273;28;20291;-87
2022/01/28 06:45:41;;;;;;;3.83;2.50;;;4.40;93.90;;;;;;4964757;28;20062;-88
2022/01/28 06:48:10;;;;;;;6.50;2.92;;;4.40;93.90;;;;;;4950347;28;20476;-88
2022/01/28 06:50:39;;;;;;;4.57;2.70;;;4.40;94.00;;;;;;4962368;28;20340;-88
2022/01/28 06:53:05;;;;;;;5.55;3.15;;;4.40;94.10;;;;;;4949758;28;20121;-87
2022/01/28 06:55:31;;;;;;;6.25;3.10;;;4.40;94.20;;;;;;4962950;28;20229;-88
2022/01/28 06:57:56;;;;;;;6.03;3.25;;;4.30;94.30;;;;;;4960617;28;20045;-88
2022/01/28 07:00:22;;;;;;;7.27;3.23;;;4.30;94.30;;;;;;4956471;28;20026;-88
2022/01/28 07:02:50;;;;;;;4.93;3.17;;;4.30;94.40;;;;;;4939698;28;20030;-88
2022/01/28 07:05:16;;;;;;;4.63;3.10;;;4.30;94.50;;;;;;4946348;28;20361;-88
2022/01/28 07:07:42;;;;;;;5.80;3.07;;;4.30;94.50;;;;;;4952086;28;20118;-87
2022/01/28 07:10:08;;;;;;;6.25;3.10;;;4.40;94.60;;;;;;4948756;28;20110;-87
2022/01/28 07:12:34;;;;;;;5.93;3.50;;;4.40;94.70;;;;;;4954705;28;20268;-88
2022/01/28 07:14:59;;;;;;;5.40;3.00;;;4.40;94.70;;;;;;4960720;28;20238;-88
2022/01/28 07:17:25;;;;;;;6.13;3.30;;;4.40;94.80;;;;;;4987614;28;20066;-87
2022/01/28 07:19:51;;;;;;;5.97;3.30;;;4.40;94.70;;;;;;4973898;28;20043;-87
2022/01/28 07:22:16;;;;;;;7.82;3.53;;;4.40;94.70;;;;;;4949607;28;20160;-87
2022/01/28 07:24:43;;;;;;;5.65;3.20;;;4.40;94.70;;;;;;4964173;28;20023;-87
2022/01/28 07:27:09;;;;;;;5.77;3.37;;;4.40;94.80;;;;;;4949206;28;20534;-87
2022/01/28 07:29:34;;;;;;;6.03;3.25;;;4.40;94.80;;;;;;4945058;28;20031;-88
2022/01/28 07:32:00;;;;;;;4.70;3.00;;;4.50;94.80;;;;;;4959962;28;20050;-88
2022/01/28 07:34:27;;;;;;;4.28;2.90;;;4.40;94.70;;;;;;4990805;28;20160;-87
2022/01/28 07:36:53;;;;;;;6.57;3.10;;;4.40;94.60;;;;;;4979171;28;20058;-87
2022/01/28 07:39:18;;;;;;;4.70;2.80;;;4.40;94.60;;;;;;4943262;28;20027;-88
2022/01/28 07:41:44;;;;;;;5.57;3.27;;;4.40;94.50;;;;;;4967272;28;20034;-88
2022/01/28 07:44:10;;;;;;;5.97;3.30;;;4.40;94.40;;;;;;4938168;28;20031;-88
2022/01/28 07:46:36;;;;;;;6.40;3.60;;;4.40;94.40;;;;;;4991344;28;20026;-88
2022/01/28 07:49:03;;;;;;;6.93;3.80;;;4.30;94.50;;;;;;4962872;28;20046;-88
2022/01/28 07:51:29;;;;;;;6.57;3.50;;;4.40;94.70;;;;;;4959743;28;20610;-88
2022/01/28 07:53:54;;;;;;;7.03;3.63;;;4.30;94.70;;;;;;4951131;28;20042;-88
2022/01/28 07:56:22;;;;;;;7.10;3.45;;;4.30;94.80;;;;;;4953116;28;20256;-88
2022/01/28 07:58:48;;;;;;;5.75;3.33;;;4.30;94.90;;;;;;4968015;28;20019;-88
2022/01/28 08:01:13;;;;;;;6.40;3.73;;;4.40;95.10;;;;;;4942581;28;20033;-88
2022/01/28 08:03:39;;;;;;;5.88;3.30;;;4.40;95.80;;;;;;4963036;28;20499;-88
2022/01/28 08:06:05;;;;;;;7.30;3.80;;;4.50;95.80;;;;;;4970583;28;20105;-88
2022/01/28 08:08:30;;;;;;;10.82;3.80;;;4.50;96.00;;;;;;4962241;28;20324;-88
2022/01/28 08:10:57;;;;;;;8.30;3.90;;;4.60;96.30;;;;;;4984536;28;20031;-88
2022/01/28 08:13:22;;;;;;;5.80;3.63;;;4.70;96.40;;;;;;4956919;28;20062;-88
2022/01/28 08:15:49;;;;;;;6.37;3.53;;;4.90;96.60;;;;;;4946703;28;20027;-87
2022/01/28 08:18:15;;;;;;;5.78;3.42;;;4.90;96.60;;;;;;4955307;28;20050;-87
2022/01/28 08:20:41;;;;;;;6.78;3.95;;;5.00;96.70;;;;;;4957126;28;20019;-88
2022/01/28 08:23:06;;;;;;;8.32;3.80;;;5.10;96.70;;;;;;4991369;28;20058;-88
2022/01/28 08:25:34;;;;;;;6.03;3.47;;;5.20;96.70;;;;;;4982942;28;20034;-88
2022/01/28 08:28:01;;;;;;;7.32;3.58;;;5.30;96.70;;;;;;4928518;28;20054;-88
2022/01/28 08:30:29;;;;;;;7.00;3.90;;;5.30;96.70;;;;;;4940304;28;20053;-88
2022/01/28 08:32:55;;;;;;;6.95;4.03;;;5.40;96.70;;;;;;4961780;28;20256;-88
2022/01/28 08:35:34;;;;;;;7.10;4.07;;;5.50;96.70;;;;;;4955795;28;20027;-88
2022/01/28 08:38:00;;;;;;;7.47;4.20;;;5.60;96.90;;;;;;4967410;28;20078;-88
2022/01/28 08:40:28;;;;;;;6.90;3.90;;;5.60;96.90;;;;;;4958564;28;20039;-88
2022/01/28 08:42:54;;;;;;;7.13;4.35;;;5.70;96.90;;;;;;4929162;28;20031;-88
2022/01/28 08:45:20;;;;;;;7.50;4.57;;;5.70;96.90;;;;;;4960431;28;20030;-88
2022/01/28 08:47:46;;;;;;;7.53;4.60;;;5.80;97.00;;;;;;4980922;28;20193;-88
2022/01/28 08:50:11;;;;;;;8.32;4.70;;;5.80;97.10;;;;;;4988513;28;20023;-88
2022/01/28 08:52:37;;;;;;;9.33;4.50;;;5.90;97.10;;;;;;4960750;28;20086;-88
2022/01/28 08:55:04;;;;;;;6.63;4.25;;;6.00;97.30;;;;;;4991986;28;20118;-88
2022/01/28 08:57:30;;;;;;;7.50;4.43;;;6.10;97.50;;;;;;4946937;28;20034;-88
2022/01/28 08:59:55;;;;;;;8.60;4.68;;;6.20;97.70;;;;;;4991030;28;20644;-88
2022/01/28 09:02:21;;;;;;;8.40;4.70;;;6.30;97.80;;;;;;4956625;28;20062;-87
2022/01/28 09:04:48;;;;;;;7.93;4.78;;;6.40;98.00;;;;;;4962819;28;20014;-87
2022/01/28 09:07:13;;;;;;;5.78;3.92;;;6.60;98.20;;;;;;4998338;28;20051;-87
2022/01/28 09:09:48;;;;;;;6.32;3.88;;;6.80;98.40;;;;;;4975536;28;20444;-87
2022/01/28 09:15:09;;;;;;;6.65;4.43;;;7.10;98.50;;;;;;4913043;28;20443;-87
2022/01/28 09:17:35;;;;;;;9.45;4.72;;;7.30;98.50;;;;;;4928993;28;20035;-87
2022/01/28 09:20:02;;;;;;;6.77;4.70;;;7.50;98.70;;;;;;4962808;28;20444;-87
2022/01/28 09:22:28;;;;;;;8.32;4.60;;;7.60;98.60;;;;;;4977099;28;20518;-87
2022/01/28 09:24:53;;;;;;;9.27;5.07;;;7.80;98.50;;;;;;4961307;28;20027;-87
2022/01/28 09:27:19;;;;;;;9.23;4.17;;;7.90;98.40;;;;;;5004798;28;20126;-87
2022/01/28 09:29:45;;;;;;;7.37;4.37;;;8.10;98.30;;;;;;4931626;28;20279;-88
2022/01/28 09:32:10;;;;;;;8.15;4.60;;;8.20;98.20;;;;;;4976674;28;20063;-88
2022/01/28 09:34:36;;;;;;;7.17;4.57;;;8.20;98.10;;;;;;4991878;28;20172;-88
2022/01/28 09:37:02;;;;;;;7.28;4.60;;;8.40;98.30;;;;;;4979808;28;20507;-88
2022/01/28 09:39:30;;;;;;;8.15;4.68;;;8.50;98.50;;;;;;4991980;28;20026;-88
2022/01/28 09:42:01;;;;;;;7.17;4.27;;;8.70;98.90;;;;;;4982850;28;20672;-88
2022/01/28 09:44:33;;;;;;;5.50;4.00;;;9.00;99.40;;;;;;4942414;28;20032;-88
2022/01/28 09:47:00;;;;;;;7.00;4.38;;;9.30;99.90;;;;;;4948117;28;20023;-88
2022/01/28 09:49:27;;;;;;;5.07;3.70;;;9.70;99.90;;;;;;4975930;28;20080;-88
2022/01/28 09:51:53;;;;;;;6.72;4.15;;;10.10;99.90;;;;;;4964656;28;20578;-88
2022/01/28 09:54:19;;;;;;;6.90;3.80;;;10.60;99.90;;;;;;4961385;28;20088;-88
2022/01/28 09:56:44;;;;;;;8.40;4.53;;;10.90;99.90;;;;;;4992198;28;20026;-88
2022/01/28 09:59:10;;;;;;;7.53;4.73;;;11.40;99.90;;;;;;4969590;28;20552;-88
2022/01/28 10:01:53;;;;;;;7.13;4.70;;;11.80;99.90;;;;;;4939915;28;21000;-88
2022/01/28 10:04:19;;;;;;;9.93;4.50;;;12.20;99.60;;;;;;4977684;28;20042;-88
2022/01/28 10:06:46;;;;;;;7.47;4.78;;;12.70;99.70;;;;;;4971498;28;20027;-88
2022/01/28 10:09:15;;;;;;;6.03;4.22;;;13.00;99.20;;;;;;4961731;28;20073;-88
2022/01/28 10:11:43;;;;;;;7.70;4.50;;;13.40;98.50;;;;;;4974594;28;20398;-88
2022/01/28 10:14:16;;;;;;;6.57;3.97;;;13.80;98.10;;;;;;4957133;28;20030;-88
2022/01/28 10:16:42;;;;;;;7.23;4.37;;;14.10;97.60;;;;;;4980553;28;20093;-88
2022/01/28 10:19:10;;;;;;;6.05;4.18;;;14.50;97.20;;;;;;4945334;28;20046;-89
2022/01/28 10:21:44;;;;;;;8.52;4.35;;;14.70;96.70;;;;;;4957039;28;20386;-89
2022/01/28 10:24:13;;;;;;;7.70;4.07;;;15.10;96.00;;;;;;4975241;28;20027;-89
2022/01/28 10:26:42;;;;;;;7.05;4.35;;;15.40;96.70;;;;;;4978831;28;20072;-89
2022/01/28 10:29:30;;;;;;;6.40;3.73;;;15.70;96.10;;;;;;4947964;28;20607;-89
2022/01/28 10:31:58;;;;;;;6.28;4.05;;;16.00;94.30;;;;;;4963490;28;20713;-89
2022/01/28 10:34:24;;;;;;;7.70;3.88;;;16.30;96.20;;;;;;4944779;28;20081;-89
2022/01/28 10:37:05;;;;;;;7.43;3.80;;;16.70;96.50;;;;;;4974405;28;20515;-89
2022/01/28 10:39:30;;;;;;;6.53;3.50;;;16.90;95.90;;;;;;4961777;28;20030;-89
2022/01/28 10:41:59;;;;;;;8.07;3.90;;;17.30;95.80;;;;;;4977306;28;20039;-89
2022/01/28 10:44:26;;;;;;;6.43;3.30;;;17.70;95.30;;;;;;4964938;28;20018;-89
2022/01/28 10:46:59;;;;;;;6.18;3.53;;;18.00;95.50;;;;;;4943360;28;20324;-89
2022/01/28 10:49:34;;;;;;;6.35;3.55;;;18.40;94.30;;;;;;4946402;28;20425;-89
2022/01/28 10:52:09;;;;;;;5.45;3.30;;;18.70;93.20;;;;;;4961511;28;20056;-89
2022/01/28 10:54:36;;;;;;;7.18;3.70;;;19.10;93.20;;;;;;4983589;28;20309;-89
2022/01/28 10:57:03;;;;;;;5.50;3.30;;;19.40;94.30;;;;;;4963947;28;20050;-87
2022/01/28 10:59:33;;;;;;;8.35;3.70;;;19.70;93.90;;;;;;4966198;28;20560;-87
2022/01/28 11:02:00;;;;;;;7.30;3.40;;;20.00;93.60;;;;;;4954242;28;20523;-87
2022/01/28 11:04:26;;;;;;;8.20;3.60;;;20.20;93.20;;;;;;4974481;28;20547;-87
2022/01/28 11:06:55;;;;;;;5.80;3.40;;;20.50;93.10;;;;;;4945652;28;20022;-87
2022/01/28 11:09:22;;;;;;;6.17;3.00;;;20.70;92.50;;;;;;4955523;28;20875;-87
2022/01/28 11:11:49;;;;;;;5.07;3.22;;;20.90;92.30;;;;;;4961175;28;20030;-87
2022/01/28 11:14:15;;;;;;;5.13;3.45;;;21.10;91.70;;;;;;4989877;28;20298;-87
2022/01/28 11:16:41;;;;;;;6.65;3.83;;;21.20;91.60;;;;;;4952977;28;20063;-87
2022/01/28 11:19:10;;;;;;;6.67;3.47;;;21.30;91.60;;;;;;4980752;28;20272;-87
2022/01/28 11:22:11;;;;;;;6.28;3.70;;;21.50;91.00;;;;;;4946713;28;20108;-87
2022/01/28 11:25:01;;;;;;;7.72;3.75;;;21.60;86.10;;;;;;4957838;28;20110;-90
2022/01/28 11:27:33;;;;;;;5.35;3.45;;;21.70;86.40;;;;;;4992963;28;20035;-89
2022/01/28 11:30:20;;;;;;;5.78;3.60;;;21.70;88.70;;;;;;4957143;28;20030;-87
2022/01/28 11:33:08;;;;;;;6.93;3.97;;;21.80;85.20;;;;;;4953746;28;20130;-87
2022/01/28 11:35:59;;;;;;;5.97;3.28;;;21.90;85.90;;;;;;4960129;28;20026;-87
2022/01/28 11:38:24;;;;;;;7.63;4.10;;;22.00;88.60;;;;;;4969475;28;20035;-87
2022/01/28 11:40:59;;;;;;;8.00;4.10;;;22.10;90.00;;;;;;4998493;28;20085;-87
2022/01/28 11:43:30;;;;;;;6.13;3.83;;;22.10;87.00;;;;;;4992414;28;20171;-87
2022/01/28 11:46:09;;;;;;;7.57;4.45;;;22.10;89.80;;;;;;4962237;28;20046;-87
2022/01/28 11:48:54;;;;;;;6.50;3.97;;;22.10;82.20;;;;;;4972799;28;20023;-87
2022/01/28 11:51:21;;;;;;;7.72;4.70;;;22.10;82.70;;;;;;4976291;28;21070;-87
2022/01/28 11:53:56;;;;;;;7.27;4.27;;;22.10;89.10;;;;;;4956766;28;20706;-87
2022/01/28 11:56:24;;;;;;;5.90;4.60;;;22.20;85.90;;;;;;4969817;28;20031;-87
2022/01/28 11:59:09;;;;;;;9.90;5.57;;;22.20;89.50;;;;;;4989329;28;20403;-87
2022/01/28 12:01:40;;;;;;;7.53;5.05;;;22.20;82.20;;;;;;4955173;28;20047;-87
2022/01/28 12:04:29;;;;;;;8.38;5.68;;;22.20;83.60;;;;;;4963555;28;20039;-87
2022/01/28 12:07:04;;;;;;;8.20;6.03;;;22.20;82.90;;;;;;4968673;28;20508;-87
2022/01/28 12:09:33;;;;;;;8.45;6.40;;;22.10;79.80;;;;;;4961136;28;20034;-87
2022/01/28 12:12:00;;;;;;;9.07;6.47;;;21.90;84.40;;;;;;4982941;28;20030;-87
2022/01/28 12:14:54;;;;;;;8.68;6.50;;;21.80;84.90;;;;;;4967440;28;20027;-88
2022/01/28 12:17:33;;;;;;;9.80;7.22;;;21.60;74.90;;;;;;4973372;28;20042;-87
2022/01/28 12:20:22;;;;;;;9.47;6.63;;;21.40;73.00;;;;;;4968359;28;20069;-86
2022/01/28 12:23:02;;;;;;;9.63;6.30;;;21.10;74.90;;;;;;4979584;28;20039;-87
2022/01/28 12:25:45;;;;;;;10.30;6.80;;;20.80;75.90;;;;;;4977154;28;20031;-87
2022/01/28 12:28:14;;;;;;;9.25;6.50;;;20.40;76.90;;;;;;4964277;28;20077;-87
2022/01/28 12:30:44;;;;;;;8.65;5.72;;;20.10;82.60;;;;;;4977396;28;20248;-87
2022/01/28 12:33:11;;;;;;;8.77;6.27;;;19.90;82.60;;;;;;4954903;28;20078;-87
2022/01/28 12:35:42;;;;;;;9.25;6.35;;;19.70;82.40;;;;;;4981031;28;20027;-87
2022/01/28 12:38:08;;;;;;;9.55;7.00;;;19.50;80.90;;;;;;4935179;28;20563;-87
2022/01/28 12:40:40;;;;;;;9.98;6.10;;;19.30;80.50;;;;;;4960387;28;20121;-87
2022/01/28 12:43:06;;;;;;;8.95;6.32;;;18.80;77.70;;;;;;4963732;28;20041;-87
2022/01/28 12:45:33;;;;;;;9.20;6.30;;;18.30;76.00;;;;;;4960602;28;20056;-86
2022/01/28 12:47:59;;;;;;;10.55;6.70;;;17.70;77.00;;;;;;4970937;28;20222;-86
2022/01/28 12:50:25;;;;;;;9.82;5.88;;;17.20;77.40;;;;;;4968002;28;20467;-87
2022/01/28 12:52:51;;;;;;;9.18;5.93;;;16.70;77.50;;;;;;4969906;28;20377;-86
2022/01/28 12:55:17;;;;;;;9.37;5.87;;;16.20;78.60;;;;;;4933721;28;20431;-86
2022/01/28 12:57:45;;;;;;;8.98;5.72;;;15.80;79.60;;;;;;4992353;28;20199;-86
2022/01/28 13:00:12;;;;;;;10.77;6.15;;;15.40;80.60;;;;;;4980859;28;20113;-86
2022/01/28 13:02:40;;;;;;;9.57;5.70;;;15.00;81.60;;;;;;4962026;28;20701;-86
2022/01/28 13:10:23;;;;;;;12.27;6.40;;;14.20;84.50;;;;;;4977362;28;20092;-86
2022/01/28 13:12:49;;;;;;;10.20;6.10;;;14.00;84.50;;;;;;4960536;28;20230;-87
2022/01/28 13:15:16;;;;;;;10.93;6.55;;;13.80;84.50;;;;;;4963362;28;20034;-86
2022/01/28 13:17:58;;;;;;;11.87;6.40;;;13.60;84.50;;;;;;4959032;28;20420;-86
2022/01/28 13:20:33;;;;;;;11.27;6.35;;;13.40;82.10;;;;;;4967273;28;20625;-86
2022/01/28 13:22:59;;;;;;;10.00;6.07;;;13.10;83.90;;;;;;4962750;28;20035;-87
2022/01/28 13:25:26;;;;;;;11.45;6.25;;;12.90;84.90;;;;;;4976170;28;20033;-86
2022/01/28 13:27:58;;;;;;;11.27;6.50;;;12.70;85.10;;;;;;4962290;28;20650;-86
2022/01/28 13:30:25;;;;;;;10.25;5.75;;;12.50;84.90;;;;;;4960269;28;20069;-86
2022/01/28 13:32:52;;;;;;;8.73;5.28;;;12.30;85.60;;;;;;4964648;28;20031;-86
2022/01/28 13:35:24;;;;;;;12.30;6.40;;;12.10;86.10;;;;;;4957104;28;20034;-86
2022/01/28 13:38:00;;;;;;;9.45;5.55;;;12.00;86.50;;;;;;4950027;28;20526;-86
2022/01/28 13:40:31;;;;;;;9.57;5.23;;;11.80;87.20;;;;;;4977478;28;20046;-86
2022/01/28 13:43:14;;;;;;;10.10;5.78;;;11.70;89.00;;;;;;4983379;28;20042;-86
2022/01/28 13:45:41;;;;;;;11.00;5.45;;;11.60;88.50;;;;;;4981437;28;20023;-86
2022/01/28 13:48:19;;;;;;;9.93;5.13;;;11.60;90.20;;;;;;4965444;28;20483;-86
2022/01/28 13:50:51;;;;;;;11.07;6.03;;;11.60;90.10;;;;;;4984432;28;22115;-86
2022/01/28 13:56:08;;;;;;;9.52;5.38;;;11.60;90.70;;;;;;4974409;28;20039;-86
2022/01/28 13:58:45;;;;;;;11.63;5.90;;;11.70;90.50;;;;;;4991016;28;20026;-86
2022/01/28 14:01:11;;;;;;;11.25;5.68;;;11.70;90.40;;;;;;4996519;28;20065;-86
2022/01/28 14:03:58;;;;;;;10.38;5.32;;;11.70;90.90;;;;;;4973853;28;20034;-86
2022/01/28 14:06:31;;;;;;;11.43;5.63;;;11.70;90.10;;;;;;4965443;28;20677;-86
2022/01/28 14:09:07;;;;;;;13.18;6.15;;;11.80;91.20;;;;;;4978042;28;20028;-86
2022/01/28 14:11:42;;;;;;;11.73;5.63;;;11.70;91.00;;;;;;4965624;28;20019;-86
2022/01/28 14:14:16;;;;;;;11.65;5.43;;;11.80;91.30;;;;;;4995550;28;20058;-86
2022/01/28 14:16:46;;;;;;;9.55;5.13;;;11.80;91.10;;;;;;4957915;28;20027;-86
2022/01/28 14:19:13;;;;;;;12.63;5.53;;;11.80;91.50;;;;;;4964311;28;20043;-86
2022/01/28 14:21:40;;;;;;;11.57;5.72;;;11.90;91.30;;;;;;4958649;28;20320;-86
2022/01/28 14:24:07;;;;;;;10.60;5.07;;;11.90;90.90;;;;;;4955368;28;20546;-86
2022/01/28 14:26:39;;;;;;;12.48;5.95;;;11.80;91.00;;;;;;4951795;28;20038;-86
2022/01/28 14:29:21;;;;;;;11.65;5.85;;;11.80;91.40;;;;;;4944991;28;20061;-86
2022/01/28 14:31:47;;;;;;;10.80;5.27;;;11.80;91.40;;;;;;4961755;28;20244;-86
2022/01/28 14:34:13;;;;;;;11.65;5.28;;;11.80;91.50;;;;;;4968745;28;20033;-86
2022/01/28 14:36:40;;;;;;;10.48;5.18;;;11.80;91.80;;;;;;4961084;28;20030;-86
2022/01/28 14:39:10;;;;;;;11.23;5.43;;;11.80;91.60;;;;;;4951880;28;20027;-86
2022/01/28 14:41:37;;;;;;;11.70;5.57;;;11.80;91.10;;;;;;4953525;28;20367;-86
2022/01/28 14:44:03;;;;;;;10.50;5.25;;;11.80;91.30;;;;;;4962218;28;20030;-86
2022/01/28 14:46:31;;;;;;;11.30;4.93;;;11.80;90.80;;;;;;4959591;28;20019;-86
2022/01/28 14:48:57;;;;;;;11.43;5.88;;;11.70;90.90;;;;;;4974364;28;20062;-86
2022/01/28 14:51:23;;;;;;;12.53;5.40;;;11.70;91.00;;;;;;4962844;28;20496;-86
2022/01/28 14:53:51;;;;;;;12.90;5.10;;;11.60;90.70;;;;;;4963266;28;20336;-86